Time,TemperatureF,DewpointF,PressureIn,WindDirection,WindDirectionDegrees,WindSpeedMPH,WindSpeedGustMPH,Humidity,HourlyPrecipIn,Conditions,Clouds,dailyrainin,SoftwareType,DateUTC
2013-02-11 00:03:00,38.8,37.8,30.02,West,265,0.0,0.0,96,0.00,,---,0.00,VWS V14.01,2013-02-11 08:03:00,
2013-02-11 00:08:00,38.8,37.8,30.02,West,265,0.0,0.0,96,0.00,,---,0.00,VWS V14.01,2013-02-11 08:08:00,
2013-02-11 00:13:00,38.8,37.8,30.02,West,265,0.0,0.0,96,0.00,,---,0.00,VWS V14.01,2013-02-11 08:13:00,
2013-02-11 00:18:00,38.5,37.5,30.02,West,265,0.0,0.0,96,0.00,,---,0.00,VWS V14.01,2013-02-11 08:18:00,
2013-02-11 00:24:00,38.5,37.5,30.02,West,265,0.0,0.0,96,0.00,,---,0.00,VWS V14.01,2013-02-11 08:24:00,
2013-02-11 00:29:00,38.3,37.3,30.02,West,265,0.0,0.0,96,0.00,,---,0.00,VWS V14.01,2013-02-11 08:29:00,
2013-02-11 00:34:00,38.2,37.2,30.02,West,265,0.0,0.0,96,0.00,,---,0.00,VWS V14.01,2013-02-11 08:34:00,
2013-02-11 00:39:00,38.0,37.0,30.02,West,265,0.0,0.0,96,0.00,,---,0.00,VWS V14.01,2013-02-11 08:39:00,
2013-02-11 00:44:00,37.9,36.9,30.02,West,265,0.0,0.0,96,0.00,,---,0.00,VWS V14.01,2013-02-11 08:44:00,
2013-02-11 00:49:00,37.9,36.9,30.02,West,265,0.0,0.0,96,0.00,,---,0.00,VWS V14.01,2013-02-11 08:49:00,
2013-02-11 00:54:00,37.9,36.9,30.02,West,265,0.0,0.0,96,0.00,,---,0.00,VWS V14.01,2013-02-11 08:54:00,
2013-02-11 00:59:00,38.0,37.0,30.02,West,265,0.0,0.0,96,0.00,,---,0.00,VWS V14.01,2013-02-11 08:59:00,
2013-02-11 01:04:00,38.2,37.2,30.02,West,265,0.0,0.0,96,0.00,,---,0.00,VWS V14.01,2013-02-11 09:04:00,
2013-02-11 01:09:00,38.0,37.0,30.02,West,265,0.0,0.0,96,0.00,,---,0.00,VWS V14.01,2013-02-11 09:09:00,
2013-02-11 01:14:00,38.0,37.0,30.02,West,265,0.0,0.0,96,0.00,,---,0.00,VWS V14.01,2013-02-11 09:14:00,
2013-02-11 01:19:00,38.0,37.0,30.02,West,265,0.0,0.0,96,0.00,,---,0.00,VWS V14.01,2013-02-11 09:19:00,
2013-02-11 01:24:00,38.0,37.0,30.02,West,265,0.0,0.0,96,0.00,,---,0.00,VWS V14.01,2013-02-11 09:24:00,
2013-02-11 01:29:00,38.2,37.2,30.02,West,265,0.0,0.0,96,0.00,,---,0.00,VWS V14.01,2013-02-11 09:29:00,
2013-02-11 01:34:00,38.5,37.7,30.03,West,265,0.0,0.0,97,0.00,,---,0.00,VWS V14.01,2013-02-11 09:34:00,
2013-02-11 01:39:00,38.6,37.8,30.03,West,265,0.0,0.0,97,0.00,,---,0.00,VWS V14.01,2013-02-11 09:39:00,
2013-02-11 01:44:00,38.8,38.0,30.03,West,265,0.0,0.0,97,0.00,,---,0.00,VWS V14.01,2013-02-11 09:44:00,
2013-02-11 01:49:00,39.1,38.3,30.03,West,265,0.0,0.0,97,0.00,,---,0.00,VWS V14.01,2013-02-11 09:49:00,
2013-02-11 01:54:00,39.2,38.4,30.03,West,265,0.0,0.0,97,0.00,,---,0.00,VWS V14.01,2013-02-11 09:54:00,
2013-02-11 01:59:00,39.1,38.1,30.03,West,265,0.0,0.0,96,0.00,,---,0.00,VWS V14.01,2013-02-11 09:59:00,
2013-02-11 02:04:00,39.2,38.4,30.03,West,265,0.0,0.0,97,0.00,,---,0.00,VWS V14.01,2013-02-11 10:04:00,
2013-02-11 02:09:00,39.5,38.7,30.03,West,265,0.0,0.0,97,0.00,,---,0.00,VWS V14.01,2013-02-11 10:09:00,
2013-02-11 02:14:00,39.6,38.8,30.03,West,265,0.0,2.0,97,0.00,,---,0.00,VWS V14.01,2013-02-11 10:14:00,
2013-02-11 02:19:00,39.6,38.8,30.03,West,265,1.0,2.0,97,0.00,,---,0.00,VWS V14.01,2013-02-11 10:19:00,
2013-02-11 02:24:00,39.5,38.5,30.03,West,265,0.0,2.0,96,0.00,,---,0.00,VWS V14.01,2013-02-11 10:24:00,
2013-02-11 02:29:00,39.5,38.5,30.03,West,265,0.0,2.0,96,0.00,,---,0.00,VWS V14.01,2013-02-11 10:29:00,
2013-02-11 02:34:00,39.3,38.3,30.03,East,91,0.0,4.0,96,0.00,,---,0.00,VWS V14.01,2013-02-11 10:34:00,
2013-02-11 02:39:00,39.3,38.3,30.03,East,91,0.0,4.0,96,0.00,,---,0.00,VWS V14.01,2013-02-11 10:39:00,
2013-02-11 02:44:00,39.1,38.1,30.03,East,97,0.0,4.0,96,0.00,,---,0.00,VWS V14.01,2013-02-11 10:44:00,
2013-02-11 02:49:00,38.9,37.9,30.03,East,97,0.0,4.0,96,0.00,,---,0.00,VWS V14.01,2013-02-11 10:49:00,
2013-02-11 02:54:00,38.5,37.5,30.03,SE,145,0.0,4.0,96,0.00,,---,0.00,VWS V14.01,2013-02-11 10:54:00,
2013-02-11 02:59:00,38.2,37.2,30.03,SE,145,0.0,4.0,96,0.00,,---,0.00,VWS V14.01,2013-02-11 10:59:00,
2013-02-11 03:04:00,38.2,37.2,30.04,SE,145,0.0,0.0,96,0.00,,---,0.00,VWS V14.01,2013-02-11 11:04:00,
2013-02-11 03:09:00,37.9,36.9,30.04,SE,145,0.0,0.0,96,0.00,,---,0.00,VWS V14.01,2013-02-11 11:09:00,
2013-02-11 03:14:00,37.8,36.8,30.04,SE,145,0.0,0.0,96,0.00,,---,0.00,VWS V14.01,2013-02-11 11:14:00,
2013-02-11 03:19:00,37.6,36.6,30.04,SE,145,0.0,0.0,96,0.00,,---,0.00,VWS V14.01,2013-02-11 11:19:00,
2013-02-11 03:24:00,37.5,36.5,30.04,ESE,121,0.0,0.0,96,0.00,,---,0.00,VWS V14.01,2013-02-11 11:24:00,
2013-02-11 03:30:00,37.6,36.6,30.04,ESE,122,0.0,5.0,96,0.00,,---,0.00,VWS V14.01,2013-02-11 11:30:00,
2013-02-11 03:35:00,38.2,37.2,30.04,ESE,111,5.0,6.0,96,0.00,,---,0.00,VWS V14.01,2013-02-11 11:35:00,
2013-02-11 03:40:00,38.6,37.6,30.04,ENE,65,3.0,7.0,96,0.00,,---,0.00,VWS V14.01,2013-02-11 11:40:00,
2013-02-11 03:45:00,39.1,38.1,30.04,East,94,5.0,7.0,96,0.00,,---,0.00,VWS V14.01,2013-02-11 11:45:00,
2013-02-11 03:50:00,39.2,38.2,30.03,ESE,108,0.0,7.0,96,0.00,,---,0.00,VWS V14.01,2013-02-11 11:50:00,
2013-02-11 03:55:00,39.2,37.9,30.03,ESE,104,6.0,7.0,95,0.00,,---,0.00,VWS V14.01,2013-02-11 11:55:00,
2013-02-11 04:00:00,39.3,38.0,30.03,ESE,102,0.0,7.0,95,0.00,,---,0.00,VWS V14.01,2013-02-11 12:00:00,
2013-02-11 04:05:00,39.1,37.5,30.04,NE,45,0.0,0.0,94,0.00,,---,0.00,VWS V14.01,2013-02-11 12:05:00,
2013-02-11 04:10:00,38.3,36.5,30.04,NE,45,0.0,0.0,93,0.00,,---,0.00,VWS V14.01,2013-02-11 12:10:00,
2013-02-11 04:15:00,37.8,36.0,30.04,NE,45,0.0,0.0,93,0.01,,---,0.01,VWS V14.01,2013-02-11 12:15:00,
2013-02-11 04:20:00,37.2,35.4,30.04,NE,45,0.0,0.0,93,0.01,,---,0.01,VWS V14.01,2013-02-11 12:20:00,
2013-02-11 04:25:00,36.8,35.0,30.04,NE,45,0.0,0.0,93,0.01,,---,0.01,VWS V14.01,2013-02-11 12:25:00,
2013-02-11 04:30:00,36.9,35.1,30.04,NE,45,0.0,0.0,93,0.01,,---,0.01,VWS V14.01,2013-02-11 12:30:00,
2013-02-11 04:35:00,36.6,34.8,30.03,NE,44,0.0,0.0,93,0.01,,---,0.01,VWS V14.01,2013-02-11 12:35:00,
2013-02-11 04:40:00,36.5,34.7,30.03,NE,45,0.0,0.0,93,0.01,,---,0.01,VWS V14.01,2013-02-11 12:40:00,
2013-02-11 04:45:00,36.3,34.5,30.03,NE,45,0.0,0.0,93,0.01,,---,0.01,VWS V14.01,2013-02-11 12:45:00,
2013-02-11 04:50:00,36.3,34.5,30.04,NE,45,0.0,0.0,93,0.01,,---,0.01,VWS V14.01,2013-02-11 12:50:00,
2013-02-11 04:55:00,36.3,34.5,30.04,NE,45,0.0,0.0,93,0.01,,---,0.01,VWS V14.01,2013-02-11 12:55:00,
2013-02-11 05:00:00,36.2,34.4,30.04,NE,45,0.0,0.0,93,0.01,,---,0.01,VWS V14.01,2013-02-11 13:00:00,
2013-02-11 05:05:00,36.0,34.4,30.04,NE,45,0.0,0.0,94,0.01,,---,0.01,VWS V14.01,2013-02-11 13:05:00,
2013-02-11 05:10:00,35.9,34.1,30.04,NE,45,0.0,0.0,93,0.01,,---,0.01,VWS V14.01,2013-02-11 13:10:00,
2013-02-11 05:15:00,35.8,34.0,30.04,NE,45,0.0,0.0,93,0.01,,---,0.01,VWS V14.01,2013-02-11 13:15:00,
2013-02-11 05:20:00,35.6,34.0,30.04,NE,45,0.0,0.0,94,0.01,,---,0.01,VWS V14.01,2013-02-11 13:20:00,
2013-02-11 05:25:00,35.6,34.0,30.04,NE,45,0.0,0.0,94,0.01,,---,0.01,VWS V14.01,2013-02-11 13:25:00,
2013-02-11 05:31:00,35.9,34.3,30.04,NE,45,0.0,0.0,94,0.01,,---,0.01,VWS V14.01,2013-02-11 13:31:00,
2013-02-11 05:36:00,35.9,34.3,30.05,NE,45,0.0,0.0,94,0.00,,---,0.01,VWS V14.01,2013-02-11 13:36:00,
2013-02-11 05:41:00,35.9,34.3,30.05,NE,45,0.0,0.0,94,0.00,,---,0.01,VWS V14.01,2013-02-11 13:41:00,
2013-02-11 05:46:00,35.9,34.3,30.05,NE,45,0.0,0.0,94,0.00,,---,0.01,VWS V14.01,2013-02-11 13:46:00,
2013-02-11 05:51:00,35.8,34.2,30.05,NE,45,0.0,0.0,94,0.00,,---,0.01,VWS V14.01,2013-02-11 13:51:00,
2013-02-11 05:56:00,35.5,34.0,30.05,NE,45,0.0,0.0,94,0.00,,---,0.01,VWS V14.01,2013-02-11 13:56:00,
2013-02-11 06:01:00,35.5,34.0,30.05,NE,45,0.0,0.0,94,0.00,,---,0.01,VWS V14.01,2013-02-11 14:01:00,
2013-02-11 06:06:00,35.5,34.0,30.06,NE,45,0.0,0.0,94,0.00,,---,0.01,VWS V14.01,2013-02-11 14:06:00,
2013-02-11 06:11:00,35.5,34.0,30.06,NE,45,0.0,0.0,94,0.00,,---,0.01,VWS V14.01,2013-02-11 14:11:00,
2013-02-11 06:16:00,35.5,34.0,30.06,NE,45,0.0,0.0,94,0.00,,---,0.01,VWS V14.01,2013-02-11 14:16:00,
2013-02-11 06:21:00,35.6,34.0,30.07,NE,45,0.0,0.0,94,0.00,,---,0.01,VWS V14.01,2013-02-11 14:21:00,
2013-02-11 06:26:00,35.8,34.2,30.07,NE,45,0.0,0.0,94,0.00,,---,0.01,VWS V14.01,2013-02-11 14:26:00,
2013-02-11 06:31:00,35.9,34.3,30.07,NE,45,0.0,0.0,94,0.00,,---,0.01,VWS V14.01,2013-02-11 14:31:00,
2013-02-11 06:36:00,35.8,34.2,30.07,NE,45,0.0,0.0,94,0.00,,---,0.01,VWS V14.01,2013-02-11 14:36:00,
2013-02-11 06:41:00,35.8,34.2,30.07,NE,45,0.0,0.0,94,0.00,,---,0.01,VWS V14.01,2013-02-11 14:41:00,
2013-02-11 06:46:00,35.9,34.6,30.08,East,79,0.0,0.0,95,0.00,,---,0.01,VWS V14.01,2013-02-11 14:46:00,
2013-02-11 06:51:00,36.0,34.4,30.08,East,79,2.0,2.0,94,0.00,,---,0.01,VWS V14.01,2013-02-11 14:51:00,
2013-02-11 06:56:00,36.0,34.4,30.08,East,79,0.0,2.0,94,0.00,,---,0.01,VWS V14.01,2013-02-11 14:56:00,
2013-02-11 07:01:00,35.9,34.3,30.08,East,79,0.0,2.0,94,0.00,,---,0.01,VWS V14.01,2013-02-11 15:01:00,
2013-02-11 07:06:00,35.8,34.2,30.09,East,79,0.0,0.0,94,0.00,,---,0.01,VWS V14.01,2013-02-11 15:06:00,
2013-02-11 07:11:00,35.8,34.2,30.09,East,79,0.0,0.0,94,0.00,,---,0.01,VWS V14.01,2013-02-11 15:11:00,
2013-02-11 07:16:00,35.6,34.0,30.09,East,79,0.0,0.0,94,0.00,,---,0.01,VWS V14.01,2013-02-11 15:16:00,
2013-02-11 07:21:00,35.6,34.0,30.09,East,79,0.0,0.0,94,0.00,,---,0.01,VWS V14.01,2013-02-11 15:21:00,
2013-02-11 07:26:00,35.5,34.0,30.09,East,79,0.0,0.0,94,0.00,,---,0.01,VWS V14.01,2013-02-11 15:26:00,
2013-02-11 07:31:00,35.5,34.0,30.10,East,79,0.0,0.0,94,0.00,,---,0.01,VWS V14.01,2013-02-11 15:31:00,
2013-02-11 07:36:00,35.5,34.0,30.10,East,79,0.0,0.0,94,0.00,,---,0.01,VWS V14.01,2013-02-11 15:36:00,
2013-02-11 07:41:00,35.5,34.0,30.10,East,79,0.0,0.0,94,0.00,,---,0.01,VWS V14.01,2013-02-11 15:41:00,
2013-02-11 07:46:00,35.5,34.0,30.12,East,79,0.0,0.0,94,0.00,,---,0.01,VWS V14.01,2013-02-11 15:46:00,
2013-02-11 07:51:00,35.9,34.3,30.12,NE,50,0.0,6.0,94,0.00,,---,0.01,VWS V14.01,2013-02-11 15:51:00,
2013-02-11 07:56:00,36.5,34.9,30.12,ENE,65,4.0,6.0,94,0.00,,---,0.01,VWS V14.01,2013-02-11 15:56:00,
2013-02-11 08:01:00,37.0,35.4,30.12,ENE,72,0.0,6.0,94,0.00,,---,0.01,VWS V14.01,2013-02-11 16:01:00,
2013-02-11 08:06:00,37.5,35.9,30.12,ENE,72,1.0,3.0,94,0.00,,---,0.01,VWS V14.01,2013-02-11 16:06:00,
2013-02-11 08:11:00,37.9,36.1,30.12,ENE,71,0.0,4.0,93,0.00,,---,0.01,VWS V14.01,2013-02-11 16:11:00,
2013-02-11 08:16:00,38.5,36.7,30.13,NE,43,0.0,4.0,93,0.00,,---,0.01,VWS V14.01,2013-02-11 16:16:00,
2013-02-11 08:21:00,39.1,37.0,30.13,ENE,62,0.0,4.0,92,0.00,,---,0.01,VWS V14.01,2013-02-11 16:21:00,
2013-02-11 08:26:00,39.6,37.5,30.13,ENE,62,0.0,4.0,92,0.00,,---,0.01,VWS V14.01,2013-02-11 16:26:00,
2013-02-11 08:32:00,40.2,37.8,30.13,ENE,62,0.0,4.0,91,0.00,,---,0.01,VWS V14.01,2013-02-11 16:32:00,
2013-02-11 08:37:00,40.6,37.9,30.13,ENE,62,0.0,0.0,90,0.00,,---,0.01,VWS V14.01,2013-02-11 16:37:00,
2013-02-11 08:42:00,41.2,38.2,30.13,ENE,62,2.0,2.0,89,0.00,,---,0.01,VWS V14.01,2013-02-11 16:42:00,
2013-02-11 08:47:00,41.8,38.5,30.13,NE,45,2.0,4.0,88,0.00,,---,0.01,VWS V14.01,2013-02-11 16:47:00,
2013-02-11 08:52:00,42.5,38.9,30.13,NE,45,0.0,4.0,87,0.00,,---,0.01,VWS V14.01,2013-02-11 16:52:00,
2013-02-11 08:57:00,43.1,39.2,30.13,NE,45,0.0,4.0,86,0.00,,---,0.01,VWS V14.01,2013-02-11 16:57:00,
2013-02-11 09:02:00,44.1,39.9,30.13,ENE,63,0.0,4.0,85,0.00,,---,0.01,VWS V14.01,2013-02-11 17:02:00,
2013-02-11 09:07:00,44.8,40.0,30.13,ENE,72,2.0,2.0,83,0.00,,---,0.01,VWS V14.01,2013-02-11 17:07:00,
2013-02-11 09:12:00,45.7,39.9,30.13,East,92,0.0,5.0,80,0.00,,---,0.01,VWS V14.01,2013-02-11 17:12:00,
2013-02-11 09:17:00,46.4,39.6,30.13,ESE,119,7.0,7.0,77,0.00,,---,0.01,VWS V14.01,2013-02-11 17:17:00,
2013-02-11 09:22:00,46.8,39.3,30.13,ENE,66,3.0,7.0,75,0.00,,---,0.01,VWS V14.01,2013-02-11 17:22:00,
2013-02-11 09:27:00,47.3,39.5,30.13,ENE,57,4.0,7.0,74,0.00,,---,0.01,VWS V14.01,2013-02-11 17:27:00,
2013-02-11 09:32:00,47.6,39.4,30.13,ESE,119,0.0,7.0,73,0.00,,---,0.01,VWS V14.01,2013-02-11 17:32:00,
2013-02-11 09:37:00,48.0,39.1,30.13,ENE,76,3.0,7.0,71,0.00,,---,0.01,VWS V14.01,2013-02-11 17:37:00,
2013-02-11 09:42:00,48.3,39.3,30.13,East,94,0.0,7.0,71,0.00,,---,0.01,VWS V14.01,2013-02-11 17:42:00,
2013-02-11 09:47:00,48.6,39.3,30.13,ENE,65,1.0,7.0,70,0.00,,---,0.01,VWS V14.01,2013-02-11 17:47:00,
2013-02-11 09:52:00,48.9,39.2,30.13,East,88,0.0,7.0,69,0.00,,---,0.01,VWS V14.01,2013-02-11 17:52:00,
2013-02-11 09:57:00,49.1,39.4,30.13,ESE,105,0.0,8.0,69,0.00,,---,0.01,VWS V14.01,2013-02-11 17:57:00,
2013-02-11 10:02:00,49.2,39.1,30.14,ENE,72,5.0,6.0,68,0.00,,---,0.01,VWS V14.01,2013-02-11 18:02:00,
2013-02-11 10:07:00,49.4,39.3,30.14,ESE,102,6.0,6.0,68,0.00,,---,0.01,VWS V14.01,2013-02-11 18:07:00,
2013-02-11 10:12:00,49.6,39.5,30.14,East,100,6.0,6.0,68,0.00,,---,0.01,VWS V14.01,2013-02-11 18:12:00,
2013-02-11 10:17:00,50.1,39.2,30.15,East,80,0.0,6.0,66,0.00,,---,0.01,VWS V14.01,2013-02-11 18:17:00,
2013-02-11 10:22:00,50.4,39.9,30.15,East,90,0.0,6.0,67,0.00,,---,0.01,VWS V14.01,2013-02-11 18:22:00,
2013-02-11 10:27:00,50.7,39.4,30.15,East,90,0.0,6.0,65,0.00,,---,0.01,VWS V14.01,2013-02-11 18:27:00,
2013-02-11 10:32:00,50.8,39.5,30.15,SE,144,1.0,1.0,65,0.00,,---,0.01,VWS V14.01,2013-02-11 18:32:00,
2013-02-11 10:37:00,51.1,39.8,30.15,ESE,108,0.0,2.0,65,0.00,,---,0.01,VWS V14.01,2013-02-11 18:37:00,
2013-02-11 10:42:00,51.7,40.3,30.15,ENE,76,0.0,2.0,65,0.00,,---,0.01,VWS V14.01,2013-02-11 18:42:00,
2013-02-11 10:47:00,52.5,39.9,30.15,East,91,0.0,4.0,62,0.00,,---,0.01,VWS V14.01,2013-02-11 18:47:00,
2013-02-11 10:52:00,53.1,40.0,30.15,East,92,0.0,4.0,61,0.00,,---,0.01,VWS V14.01,2013-02-11 18:52:00,
2013-02-11 10:57:00,53.6,39.6,30.15,ESE,103,4.0,5.0,59,0.00,,---,0.01,VWS V14.01,2013-02-11 18:57:00,
2013-02-11 11:02:00,54.2,39.8,30.15,ENE,72,3.0,6.0,58,0.00,,---,0.01,VWS V14.01,2013-02-11 19:02:00,
2013-02-11 11:07:00,54.7,40.2,30.15,East,82,0.0,6.0,58,0.00,,---,0.01,VWS V14.01,2013-02-11 19:07:00,
2013-02-11 11:12:00,55.0,39.6,30.15,ESE,109,0.0,6.0,56,0.00,,---,0.01,VWS V14.01,2013-02-11 19:12:00,
2013-02-11 11:17:00,55.1,38.8,30.15,ENE,60,0.0,6.0,54,0.00,,---,0.01,VWS V14.01,2013-02-11 19:17:00,
2013-02-11 11:23:00,55.3,37.0,30.15,NE,55,3.0,8.0,50,0.00,,---,0.01,VWS V14.01,2013-02-11 19:23:00,
2013-02-11 11:28:00,55.4,37.6,30.15,NE,55,2.0,8.0,51,0.00,,---,0.01,VWS V14.01,2013-02-11 19:28:00,
2013-02-11 11:33:00,55.6,38.3,30.15,NNE,19,5.0,7.0,52,0.00,,---,0.01,VWS V14.01,2013-02-11 19:33:00,
2013-02-11 11:38:00,55.7,37.4,30.15,NE,54,6.0,7.0,50,0.00,,---,0.01,VWS V14.01,2013-02-11 19:38:00,
2013-02-11 11:43:00,56.0,37.6,30.15,ENE,64,5.0,7.0,50,0.00,,---,0.01,VWS V14.01,2013-02-11 19:43:00,
2013-02-11 11:48:00,56.2,36.8,30.14,NE,44,6.0,7.0,48,0.00,,---,0.01,VWS V14.01,2013-02-11 19:48:00,
2013-02-11 11:53:00,56.3,35.2,30.14,ENE,61,5.0,8.0,45,0.00,,---,0.01,VWS V14.01,2013-02-11 19:53:00,
2013-02-11 11:58:00,56.5,36.0,30.14,NE,40,2.0,9.0,46,0.00,,---,0.01,VWS V14.01,2013-02-11 19:58:00,
2013-02-11 12:03:00,56.7,36.2,30.14,ENE,76,0.0,5.0,46,0.00,,---,0.01,VWS V14.01,2013-02-11 20:03:00,
2013-02-11 12:08:00,56.9,35.2,30.14,NE,54,6.0,8.0,44,0.00,,---,0.01,VWS V14.01,2013-02-11 20:08:00,
2013-02-11 12:13:00,56.9,36.3,30.14,NE,54,5.0,8.0,46,0.00,,---,0.01,VWS V14.01,2013-02-11 20:13:00,
2013-02-11 12:18:00,57.2,36.6,30.13,ENE,60,0.0,8.0,46,0.00,,---,0.01,VWS V14.01,2013-02-11 20:18:00,
2013-02-11 12:23:00,57.3,36.2,30.13,NE,47,1.0,8.0,45,0.00,,---,0.01,VWS V14.01,2013-02-11 20:23:00,
2013-02-11 12:28:00,57.6,36.4,30.13,ENE,60,0.0,8.0,45,0.00,,---,0.01,VWS V14.01,2013-02-11 20:28:00,
2013-02-11 12:33:00,58.0,36.2,30.13,ENE,57,0.0,3.0,44,0.00,,---,0.01,VWS V14.01,2013-02-11 20:33:00,
2013-02-11 12:38:00,58.3,37.1,30.13,ENE,67,4.0,5.0,45,0.00,,---,0.01,VWS V14.01,2013-02-11 20:38:00,
2013-02-11 12:43:00,58.4,36.6,30.13,East,80,4.0,7.0,44,0.00,,---,0.01,VWS V14.01,2013-02-11 20:43:00,
2013-02-11 12:48:00,58.7,36.9,30.13,East,87,2.0,7.0,44,0.00,,---,0.01,VWS V14.01,2013-02-11 20:48:00,
2013-02-11 12:53:00,58.7,36.9,30.13,ENE,75,0.0,7.0,44,0.00,,---,0.01,VWS V14.01,2013-02-11 20:53:00,
2013-02-11 12:58:00,59.0,36.6,30.13,ENE,59,0.0,7.0,43,0.00,,---,0.01,VWS V14.01,2013-02-11 20:58:00,
2013-02-11 13:03:00,59.0,36.0,30.12,ENE,76,0.0,6.0,42,0.00,,---,0.01,VWS V14.01,2013-02-11 21:03:00,
2013-02-11 13:08:00,59.3,35.6,30.12,ENE,62,5.0,6.0,41,0.00,,---,0.01,VWS V14.01,2013-02-11 21:08:00,
2013-02-11 13:13:00,59.6,35.9,30.12,ENE,57,0.0,6.0,41,0.00,,---,0.01,VWS V14.01,2013-02-11 21:13:00,
2013-02-11 13:18:00,59.8,34.2,30.12,ENE,60,2.0,6.0,38,0.00,,---,0.01,VWS V14.01,2013-02-11 21:18:00,
2013-02-11 13:23:00,59.8,35.5,30.12,ENE,71,0.0,6.0,40,0.00,,---,0.01,VWS V14.01,2013-02-11 21:23:00,
2013-02-11 13:28:00,60.1,35.7,30.12,NE,36,5.0,6.0,40,0.00,,---,0.01,VWS V14.01,2013-02-11 21:28:00,
2013-02-11 13:34:00,60.1,35.1,30.11,ENE,66,0.0,3.0,39,0.00,,---,0.01,VWS V14.01,2013-02-11 21:34:00,
2013-02-11 13:39:00,60.2,35.8,30.11,ENE,77,0.0,3.0,40,0.00,,---,0.01,VWS V14.01,2013-02-11 21:39:00,
2013-02-11 13:44:00,60.7,35.0,30.11,ENE,61,0.0,3.0,38,0.00,,---,0.01,VWS V14.01,2013-02-11 21:44:00,
2013-02-11 13:49:00,61.0,33.2,30.11,ENE,60,0.0,3.0,35,0.00,,---,0.01,VWS V14.01,2013-02-11 21:49:00,
2013-02-11 13:54:00,61.5,33.6,30.11,ENE,60,0.0,3.0,35,0.00,,---,0.01,VWS V14.01,2013-02-11 21:54:00,
2013-02-11 13:59:00,61.6,34.4,30.11,NE,39,0.0,3.0,36,0.00,,---,0.01,VWS V14.01,2013-02-11 21:59:00,
2013-02-11 14:04:00,61.6,33.7,30.10,ENE,57,1.0,2.0,35,0.00,,---,0.01,VWS V14.01,2013-02-11 22:04:00,
2013-02-11 14:09:00,61.5,34.3,30.10,NE,44,0.0,2.0,36,0.00,,---,0.01,VWS V14.01,2013-02-11 22:09:00,
2013-02-11 14:14:00,61.8,34.6,30.10,North,10,0.0,2.0,36,0.00,,---,0.01,VWS V14.01,2013-02-11 22:14:00,
2013-02-11 14:19:00,62.3,33.6,30.11,NW,309,0.0,2.0,34,0.00,,---,0.01,VWS V14.01,2013-02-11 22:19:00,
2013-02-11 14:24:00,62.4,35.1,30.11,NW,314,0.0,3.0,36,0.00,,---,0.01,VWS V14.01,2013-02-11 22:24:00,
2013-02-11 14:29:00,62.3,32.9,30.11,NE,42,0.0,5.0,33,0.00,,---,0.01,VWS V14.01,2013-02-11 22:29:00,
2013-02-11 14:34:00,62.0,33.3,30.11,NNW,342,0.0,1.0,34,0.00,,---,0.01,VWS V14.01,2013-02-11 22:34:00,
2013-02-11 14:39:00,62.3,34.3,30.11,NW,326,0.0,1.0,35,0.00,,---,0.01,VWS V14.01,2013-02-11 22:39:00,
2013-02-11 14:44:00,63.1,38.4,30.11,West,275,5.0,6.0,40,0.00,,---,0.01,VWS V14.01,2013-02-11 22:44:00,
2013-02-11 14:49:00,63.2,38.5,30.11,West,274,0.0,6.0,40,0.00,,---,0.01,VWS V14.01,2013-02-11 22:49:00,
2013-02-11 14:54:00,63.1,38.4,30.11,West,274,1.0,6.0,40,0.00,,---,0.01,VWS V14.01,2013-02-11 22:54:00,
2013-02-11 14:59:00,63.2,37.9,30.11,SW,232,0.0,6.0,39,0.00,,---,0.01,VWS V14.01,2013-02-11 22:59:00,
2013-02-11 15:04:00,63.2,38.5,30.11,West,270,0.0,6.0,40,0.00,,---,0.01,VWS V14.01,2013-02-11 23:04:00,
2013-02-11 15:09:00,63.2,38.5,30.11,WNW,288,0.0,6.0,40,0.00,,---,0.01,VWS V14.01,2013-02-11 23:09:00,
2013-02-11 15:14:00,63.1,38.4,30.11,NNW,336,0.0,6.0,40,0.00,,---,0.01,VWS V14.01,2013-02-11 23:14:00,
2013-02-11 15:19:00,63.1,39.0,30.11,NW,323,0.0,6.0,41,0.00,,---,0.01,VWS V14.01,2013-02-11 23:19:00,
2013-02-11 15:24:00,63.4,38.7,30.11,West,260,0.0,6.0,40,0.00,,---,0.01,VWS V14.01,2013-02-11 23:24:00,
2013-02-11 15:30:00,63.5,38.1,30.11,WSW,257,2.0,6.0,39,0.00,,---,0.01,VWS V14.01,2013-02-11 23:30:00,
2013-02-11 15:35:00,62.7,38.7,30.11,WNW,286,3.0,6.0,41,0.00,,---,0.01,VWS V14.01,2013-02-11 23:35:00,
2013-02-11 15:40:00,62.1,37.5,30.11,West,265,0.0,7.0,40,0.00,,---,0.01,VWS V14.01,2013-02-11 23:40:00,
2013-02-11 15:45:00,61.8,37.9,30.11,West,259,0.0,7.0,41,0.00,,---,0.01,VWS V14.01,2013-02-11 23:45:00,
2013-02-11 15:50:00,61.6,37.7,30.11,West,276,0.0,7.0,41,0.00,,---,0.01,VWS V14.01,2013-02-11 23:50:00,
2013-02-11 15:55:00,61.8,37.2,30.11,West,271,0.0,7.0,40,0.00,,---,0.01,VWS V14.01,2013-02-11 23:55:00,
2013-02-11 16:00:00,62.1,38.1,30.11,West,259,4.0,7.0,41,0.00,,---,0.01,VWS V14.01,2013-02-12 00:00:00,
2013-02-11 16:05:00,62.0,37.4,30.12,West,272,0.0,1.0,40,0.00,,---,0.01,VWS V14.01,2013-02-12 00:05:00,
2013-02-11 16:10:00,62.0,38.0,30.12,West,275,0.0,2.0,41,0.00,,---,0.01,VWS V14.01,2013-02-12 00:10:00,
2013-02-11 16:15:00,61.8,37.9,30.12,West,265,0.0,2.0,41,0.00,,---,0.01,VWS V14.01,2013-02-12 00:15:00,
2013-02-11 16:20:00,61.3,37.4,30.12,WSW,258,0.0,6.0,41,0.00,,---,0.01,VWS V14.01,2013-02-12 00:20:00,
2013-02-11 16:25:00,60.9,37.7,30.12,WNW,283,0.0,6.0,42,0.00,,---,0.01,VWS V14.01,2013-02-12 00:25:00,
2013-02-11 16:30:00,59.6,38.2,30.12,SW,234,0.0,6.0,45,0.00,,---,0.01,VWS V14.01,2013-02-12 00:30:00,
2013-02-11 16:35:00,58.3,37.6,30.12,WSW,248,3.0,6.0,46,0.00,,---,0.01,VWS V14.01,2013-02-12 00:35:00,
2013-02-11 16:40:00,57.3,37.3,30.12,West,267,0.0,7.0,47,0.00,,---,0.01,VWS V14.01,2013-02-12 00:40:00,
2013-02-11 16:45:00,56.6,37.2,30.12,West,273,0.0,7.0,48,0.00,,---,0.01,VWS V14.01,2013-02-12 00:45:00,
2013-02-11 16:50:00,56.0,37.1,30.13,West,259,0.0,7.0,49,0.00,,---,0.01,VWS V14.01,2013-02-12 00:50:00,
2013-02-11 16:55:00,55.6,37.3,30.13,West,259,0.0,7.0,50,0.00,,---,0.01,VWS V14.01,2013-02-12 00:55:00,
2013-02-11 17:00:00,55.1,36.8,30.13,West,259,0.0,7.0,50,0.00,,---,0.01,VWS V14.01,2013-02-12 01:00:00,
2013-02-11 17:05:00,54.7,36.4,30.13,West,259,0.0,0.0,50,0.00,,---,0.01,VWS V14.01,2013-02-12 01:05:00,
2013-02-11 17:11:00,54.4,36.7,30.13,West,259,0.0,0.0,51,0.00,,---,0.01,VWS V14.01,2013-02-12 01:11:00,
2013-02-11 17:15:00,53.9,37.2,30.13,West,259,0.0,0.0,53,0.00,,---,0.01,VWS V14.01,2013-02-12 01:15:00,
2013-02-11 17:21:00,53.3,37.1,30.13,West,259,0.0,1.0,54,0.00,,---,0.01,VWS V14.01,2013-02-12 01:21:00,
2013-02-11 17:26:00,53.1,37.8,30.13,West,259,0.0,1.0,56,0.00,,---,0.01,VWS V14.01,2013-02-12 01:26:00,
2013-02-11 17:31:00,52.8,38.5,30.13,West,259,0.0,1.0,58,0.00,,---,0.01,VWS V14.01,2013-02-12 01:31:00,
2013-02-11 17:36:00,52.3,38.8,30.13,West,259,0.0,0.0,60,0.00,,---,0.01,VWS V14.01,2013-02-12 01:36:00,
2013-02-11 17:41:00,51.7,38.7,30.13,West,259,0.0,0.0,61,0.00,,---,0.01,VWS V14.01,2013-02-12 01:41:00,
2013-02-11 17:46:00,51.1,39.0,30.13,West,259,0.0,0.0,63,0.00,,---,0.01,VWS V14.01,2013-02-12 01:46:00,
2013-02-11 17:51:00,50.5,38.8,30.14,West,259,0.0,0.0,64,0.00,,---,0.01,VWS V14.01,2013-02-12 01:51:00,
2013-02-11 17:56:00,50.1,39.2,30.14,West,259,0.0,0.0,66,0.00,,---,0.01,VWS V14.01,2013-02-12 01:56:00,
2013-02-11 18:01:00,49.8,39.3,30.14,SSW,206,0.0,1.0,67,0.00,,---,0.01,VWS V14.01,2013-02-12 02:01:00,
2013-02-11 18:06:00,49.6,39.5,30.15,SSW,213,0.0,3.0,68,0.00,,---,0.01,VWS V14.01,2013-02-12 02:06:00,
2013-02-11 18:11:00,49.4,39.7,30.15,SSW,213,0.0,3.0,69,0.00,,---,0.01,VWS V14.01,2013-02-12 02:11:00,
2013-02-11 18:16:00,49.1,39.4,30.15,SSW,213,0.0,3.0,69,0.00,,---,0.01,VWS V14.01,2013-02-12 02:16:00,
2013-02-11 18:21:00,48.8,39.1,30.16,SSW,213,0.0,3.0,69,0.00,,---,0.01,VWS V14.01,2013-02-12 02:21:00,
2013-02-11 18:26:00,48.6,38.9,30.16,SSW,213,0.0,3.0,69,0.00,,---,0.01,VWS V14.01,2013-02-12 02:26:00,
2013-02-11 18:31:00,48.3,39.3,30.16,SW,214,0.0,3.0,71,0.00,,---,0.01,VWS V14.01,2013-02-12 02:31:00,
2013-02-11 18:36:00,48.0,39.4,30.16,SW,214,0.0,0.0,72,0.00,,---,0.01,VWS V14.01,2013-02-12 02:36:00,
2013-02-11 18:41:00,47.7,40.2,30.16,SW,214,0.0,0.0,75,0.00,,---,0.01,VWS V14.01,2013-02-12 02:41:00,
2013-02-11 18:46:00,47.4,40.6,30.17,SW,214,0.0,0.0,77,0.00,,---,0.01,VWS V14.01,2013-02-12 02:46:00,
2013-02-11 18:51:00,47.1,40.3,30.17,SW,214,0.0,0.0,77,0.00,,---,0.01,VWS V14.01,2013-02-12 02:51:00,
2013-02-11 18:56:00,46.8,40.6,30.17,SW,214,0.0,0.0,79,0.00,,---,0.01,VWS V14.01,2013-02-12 02:56:00,
2013-02-11 19:01:00,46.5,40.7,30.17,SW,214,0.0,0.0,80,0.00,,---,0.01,VWS V14.01,2013-02-12 03:01:00,
2013-02-11 19:06:00,46.5,41.0,30.17,South,170,0.0,3.0,81,0.00,,---,0.01,VWS V14.01,2013-02-12 03:06:00,
2013-02-11 19:11:00,46.5,41.0,30.17,South,170,0.0,3.0,81,0.00,,---,0.01,VWS V14.01,2013-02-12 03:11:00,
2013-02-11 19:16:00,46.1,40.6,30.17,South,170,0.0,3.0,81,0.00,,---,0.01,VWS V14.01,2013-02-12 03:16:00,
2013-02-11 19:21:00,45.8,40.6,30.17,South,170,0.0,3.0,82,0.00,,---,0.01,VWS V14.01,2013-02-12 03:21:00,
2013-02-11 19:26:00,45.7,40.5,30.17,South,170,0.0,3.0,82,0.00,,---,0.01,VWS V14.01,2013-02-12 03:26:00,
2013-02-11 19:31:00,45.7,40.8,30.17,South,170,0.0,3.0,83,0.00,,---,0.01,VWS V14.01,2013-02-12 03:31:00,
2013-02-11 19:36:00,45.1,39.9,30.17,South,170,0.0,0.0,82,0.00,,---,0.01,VWS V14.01,2013-02-12 03:36:00,
2013-02-11 19:41:00,44.6,39.8,30.17,South,170,0.0,0.0,83,0.00,,---,0.01,VWS V14.01,2013-02-12 03:41:00,
2013-02-11 19:46:00,44.3,39.8,30.18,South,170,0.0,0.0,84,0.00,,---,0.01,VWS V14.01,2013-02-12 03:46:00,
2013-02-11 19:52:00,44.2,40.0,30.18,South,170,0.0,0.0,85,0.00,,---,0.01,VWS V14.01,2013-02-12 03:52:00,
2013-02-11 19:57:00,44.1,39.9,30.18,South,170,0.0,0.0,85,0.00,,---,0.01,VWS V14.01,2013-02-12 03:57:00,
2013-02-11 20:01:00,43.9,40.0,30.18,South,170,0.0,0.0,86,0.00,,---,0.01,VWS V14.01,2013-02-12 04:01:00,
2013-02-11 20:06:00,43.8,39.9,30.18,South,170,0.0,0.0,86,0.00,,---,0.01,VWS V14.01,2013-02-12 04:06:00,
2013-02-11 20:11:00,43.6,39.7,30.18,South,170,0.0,0.0,86,0.00,,---,0.01,VWS V14.01,2013-02-12 04:11:00,
2013-02-11 20:16:00,43.5,39.6,30.18,South,170,0.0,0.0,86,0.00,,---,0.01,VWS V14.01,2013-02-12 04:16:00,
2013-02-11 20:21:00,43.5,39.9,30.18,South,170,0.0,0.0,87,0.00,,---,0.01,VWS V14.01,2013-02-12 04:21:00,
2013-02-11 20:26:00,43.3,40.0,30.18,South,170,0.0,0.0,88,0.00,,---,0.01,VWS V14.01,2013-02-12 04:26:00,
2013-02-11 20:31:00,43.5,40.2,30.19,South,170,0.0,0.0,88,0.00,,---,0.01,VWS V14.01,2013-02-12 04:31:00,
2013-02-11 20:36:00,43.2,39.9,30.19,South,170,0.0,0.0,88,0.00,,---,0.01,VWS V14.01,2013-02-12 04:36:00,
2013-02-11 20:41:00,43.1,39.8,30.19,South,170,0.0,0.0,88,0.00,,---,0.01,VWS V14.01,2013-02-12 04:41:00,
2013-02-11 20:46:00,43.1,40.1,30.19,South,170,0.0,0.0,89,0.00,,---,0.01,VWS V14.01,2013-02-12 04:46:00,
2013-02-11 20:51:00,43.1,40.1,30.19,South,170,0.0,0.0,89,0.00,,---,0.01,VWS V14.01,2013-02-12 04:51:00,
2013-02-11 20:56:00,42.9,39.9,30.19,South,170,0.0,0.0,89,0.00,,---,0.01,VWS V14.01,2013-02-12 04:56:00,
2013-02-11 21:00:00,42.8,39.8,30.19,South,170,0.0,0.0,89,0.00,,---,0.01,VWS V14.01,2013-02-12 05:00:00,
2013-02-11 21:03:00,42.5,39.5,30.19,South,170,0.0,0.0,89,0.00,,---,0.01,VWS V14.01,2013-02-12 05:03:00,
2013-02-11 21:08:00,42.2,39.2,30.19,South,170,0.0,0.0,89,0.00,,---,0.01,VWS V14.01,2013-02-12 05:08:00,
2013-02-11 21:13:00,42.1,39.1,30.19,South,170,0.0,0.0,89,0.00,,---,0.01,VWS V14.01,2013-02-12 05:13:00,
2013-02-11 21:18:00,41.8,39.1,30.19,South,170,0.0,0.0,90,0.00,,---,0.01,VWS V14.01,2013-02-12 05:18:00,
2013-02-11 21:23:00,41.6,38.9,30.19,South,170,0.0,0.0,90,0.00,,---,0.01,VWS V14.01,2013-02-12 05:23:00,
2013-02-11 21:28:00,41.5,38.8,30.19,South,170,0.0,0.0,90,0.00,,---,0.01,VWS V14.01,2013-02-12 05:28:00,
2013-02-11 21:33:00,41.6,39.2,30.19,South,170,0.0,0.0,91,0.00,,---,0.01,VWS V14.01,2013-02-12 05:33:00,
2013-02-11 21:38:00,41.5,39.1,30.19,South,170,0.0,0.0,91,0.00,,---,0.01,VWS V14.01,2013-02-12 05:38:00,
2013-02-11 21:43:00,41.5,39.1,30.19,South,170,0.0,0.0,91,0.00,,---,0.01,VWS V14.01,2013-02-12 05:43:00,
2013-02-11 21:48:00,41.5,39.3,30.20,South,170,0.0,0.0,92,0.00,,---,0.01,VWS V14.01,2013-02-12 05:48:00,
2013-02-11 21:53:00,41.5,39.3,30.20,South,170,0.0,0.0,92,0.00,,---,0.01,VWS V14.01,2013-02-12 05:53:00,
2013-02-11 21:58:00,41.5,39.3,30.20,South,170,0.0,0.0,92,0.00,,---,0.01,VWS V14.01,2013-02-12 05:58:00,
2013-02-11 22:03:00,41.6,39.5,30.20,South,170,0.0,0.0,92,0.00,,---,0.01,VWS V14.01,2013-02-12 06:03:00,
2013-02-11 22:08:00,41.5,39.3,30.20,South,170,0.0,0.0,92,0.00,,---,0.01,VWS V14.01,2013-02-12 06:08:00,
2013-02-11 22:13:00,41.3,39.2,30.20,South,170,0.0,0.0,92,0.00,,---,0.01,VWS V14.01,2013-02-12 06:13:00,
2013-02-11 22:18:00,41.3,39.2,30.20,South,170,0.0,0.0,92,0.00,,---,0.01,VWS V14.01,2013-02-12 06:18:00,
2013-02-11 22:23:00,41.2,39.1,30.20,South,170,0.0,0.0,92,0.00,,---,0.01,VWS V14.01,2013-02-12 06:23:00,
2013-02-11 22:28:00,40.9,38.8,30.20,South,170,0.0,0.0,92,0.00,,---,0.01,VWS V14.01,2013-02-12 06:28:00,
2013-02-11 22:33:00,40.8,38.9,30.20,South,170,0.0,0.0,93,0.00,,---,0.01,VWS V14.01,2013-02-12 06:33:00,
2013-02-11 22:38:00,40.6,38.7,30.20,South,170,0.0,0.0,93,0.00,,---,0.01,VWS V14.01,2013-02-12 06:38:00,
2013-02-11 22:43:00,40.8,38.9,30.20,South,170,0.0,0.0,93,0.00,,---,0.01,VWS V14.01,2013-02-12 06:43:00,
2013-02-11 22:48:00,40.8,38.9,30.20,South,170,0.0,0.0,93,0.00,,---,0.01,VWS V14.01,2013-02-12 06:48:00,
2013-02-11 22:53:00,40.6,38.7,30.20,South,170,0.0,0.0,93,0.00,,---,0.01,VWS V14.01,2013-02-12 06:53:00,
2013-02-11 22:58:00,40.6,38.7,30.20,South,170,0.0,0.0,93,0.00,,---,0.01,VWS V14.01,2013-02-12 06:58:00,
2013-02-11 23:03:00,40.6,39.0,30.20,South,170,0.0,0.0,94,0.00,,---,0.01,VWS V14.01,2013-02-12 07:03:00,
2013-02-11 23:08:00,40.5,38.9,30.20,South,170,0.0,0.0,94,0.00,,---,0.01,VWS V14.01,2013-02-12 07:08:00,
2013-02-11 23:13:00,40.3,38.7,30.20,South,170,0.0,0.0,94,0.00,,---,0.01,VWS V14.01,2013-02-12 07:13:00,
2013-02-11 23:18:00,40.2,38.6,30.21,South,170,0.0,0.0,94,0.00,,---,0.01,VWS V14.01,2013-02-12 07:18:00,
2013-02-11 23:24:00,40.2,38.6,30.21,South,170,0.0,0.0,94,0.00,,---,0.01,VWS V14.01,2013-02-12 07:24:00,
2013-02-11 23:29:00,40.1,38.5,30.21,South,170,0.0,0.0,94,0.00,,---,0.01,VWS V14.01,2013-02-12 07:29:00,
2013-02-11 23:34:00,39.9,38.3,30.21,South,170,0.0,0.0,94,0.00,,---,0.01,VWS V14.01,2013-02-12 07:34:00,
2013-02-11 23:39:00,39.9,38.3,30.21,South,170,0.0,0.0,94,0.00,,---,0.01,VWS V14.01,2013-02-12 07:39:00,
2013-02-11 23:44:00,39.8,38.2,30.21,South,170,0.0,0.0,94,0.00,,---,0.01,VWS V14.01,2013-02-12 07:44:00,
2013-02-11 23:49:00,39.8,38.5,30.21,South,170,0.0,0.0,95,0.00,,---,0.01,VWS V14.01,2013-02-12 07:49:00,
2013-02-11 23:54:00,39.8,38.2,30.21,South,170,0.0,0.0,94,0.00,,---,0.01,VWS V14.01,2013-02-12 07:54:00,
2013-02-11 23:59:00,39.8,38.5,30.21,South,170,0.0,0.0,95,0.00,,---,0.01,VWS V14.01,2013-02-12 07:59:00,